createdAt,value
2023-01-19T00:02:18.737Z,98093.23
2023-01-19T00:05:20.629Z,98100.63
2023-01-19T00:08:22.162Z,98104.32
2023-01-19T00:11:24.452Z,98106.15
2023-01-19T00:14:26.236Z,98110.54
2023-01-19T00:17:27.766Z,98108.77
2023-01-19T00:20:29.584Z,98110.43
2023-01-19T00:23:31.058Z,98116.66
2023-01-19T00:26:32.584Z,98114.44
2023-01-19T00:29:34.151Z,98116.44
2023-01-19T00:32:35.775Z,98120.99
2023-01-19T00:35:37.400Z,98119.77
2023-01-19T00:38:39.049Z,98119.37
2023-01-19T00:41:40.665Z,98121.36
2023-01-19T00:44:42.431Z,98119.45
2023-01-19T00:47:43.926Z,98115.67
2023-01-19T00:50:45.545Z,98118.69
2023-01-19T00:53:47.059Z,98117.95
2023-01-19T00:56:48.740Z,98116.07
2023-01-19T00:59:50.435Z,98110.91
2023-01-19T01:02:53.167Z,98111.04
2023-01-19T01:05:54.886Z,98114.70
2023-01-19T01:08:56.496Z,98107.75
2023-01-19T01:11:58.162Z,98104.58
2023-01-19T01:15:01.700Z,98105.44
2023-01-19T01:18:03.357Z,98103.73
2023-01-19T01:21:05.700Z,98096.91
2023-01-19T01:24:08.464Z,98096.17
2023-01-19T01:27:10.168Z,98091.75
2023-01-19T01:30:13.619Z,98090.70
2023-01-19T01:33:15.313Z,98087.41
2023-01-19T01:36:36.950Z,98079.55
2023-01-19T01:39:38.691Z,98080.70
2023-01-19T01:42:40.293Z,98080.87
2023-01-19T01:45:42.714Z,98084.77
2023-01-19T01:48:48.954Z,98083.19
2023-01-19T01:51:52.963Z,98080.09
2023-01-19T01:54:54.807Z,98081.23
2023-01-19T01:57:57.076Z,98082.05
2023-01-19T02:00:58.659Z,98080.25
2023-01-19T02:04:00.283Z,98077.52
2023-01-19T02:07:01.891Z,98073.77
2023-01-19T02:10:03.603Z,98075.11
2023-01-19T02:13:05.202Z,98071.83
2023-01-19T02:16:08.167Z,98066.80
2023-01-19T02:19:14.149Z,98067.16
2023-01-19T02:22:25.069Z,98067.98
2023-01-19T02:25:27.093Z,98068.52
2023-01-19T02:28:29.567Z,98065.73
2023-01-19T02:31:33.430Z,98061.42
2023-01-19T02:34:35.283Z,98068.33
2023-01-19T02:37:38.228Z,98065.06
2023-01-19T02:40:42.148Z,98060.60
2023-01-19T02:43:44.254Z,98056.80
2023-01-19T02:46:45.825Z,98055.41
2023-01-19T02:50:32.866Z,98054.03
2023-01-19T02:54:05.071Z,98049.23
2023-01-19T02:57:31.993Z,98057.05
2023-01-19T03:01:18.606Z,98062.36
2023-01-19T03:04:49.533Z,98061.19
2023-01-19T03:07:57.047Z,98063.90
2023-01-19T03:11:08.347Z,98067.80
2023-01-19T03:14:15.741Z,98065.08
2023-01-19T03:17:18.164Z,98068.81
2023-01-19T03:20:24.143Z,98070.16
2023-01-19T03:23:27.950Z,98068.11
2023-01-19T03:26:31.882Z,98068.42
2023-01-19T03:29:34.493Z,98065.19
2023-01-19T03:32:39.404Z,98070.45
2023-01-19T03:35:44.948Z,98078.46
2023-01-19T03:38:47.309Z,98082.23
2023-01-19T03:41:56.754Z,98079.02
2023-01-19T03:45:00.398Z,98082.05
2023-01-19T03:48:02.251Z,98084.58
2023-01-19T03:51:04.662Z,98080.67
2023-01-19T03:54:07.251Z,98085.41
2023-01-19T03:57:09.168Z,98083.81
2023-01-19T04:00:12.067Z,98086.86
2023-01-19T04:03:15.564Z,98089.87
2023-01-19T04:06:18.020Z,98090.52
2023-01-19T04:09:20.246Z,98092.23
2023-01-19T04:12:22.304Z,98088.63
2023-01-19T04:15:24.031Z,98084.02
2023-01-19T04:18:25.688Z,98078.57
2023-01-19T04:21:27.581Z,98064.73
2023-01-19T04:24:29.508Z,98054.91
2023-01-19T04:27:31.267Z,98049.92
2023-01-19T04:30:33.943Z,98053.09
2023-01-19T04:33:35.610Z,98051.20
2023-01-19T04:36:37.182Z,98051.67
2023-01-19T04:39:38.769Z,98061.64
2023-01-19T04:42:44.073Z,98066.45
2023-01-19T04:45:46.765Z,98074.31
2023-01-19T04:48:48.328Z,98072.34
2023-01-19T04:51:53.047Z,98080.95
2023-01-19T04:54:54.567Z,98104.77
2023-01-19T04:57:56.436Z,98124.38
2023-01-19T05:00:57.968Z,98133.44
2023-01-19T05:03:59.560Z,98136.04
2023-01-19T05:07:01.100Z,98142.01
2023-01-19T05:10:02.824Z,98150.72
2023-01-19T05:13:04.358Z,98161.52
2023-01-19T05:16:06.706Z,98164.60
2023-01-19T05:19:08.422Z,98160.56
2023-01-19T05:22:10.347Z,98152.82
2023-01-19T05:25:11.917Z,98146.17
2023-01-19T05:28:13.475Z,98153.04
2023-01-19T05:31:15.228Z,98171.41
2023-01-19T05:34:17.650Z,98170.30
2023-01-19T05:37:19.720Z,98170.45
2023-01-19T05:40:21.368Z,98180.15
2023-01-19T05:43:22.943Z,98191.56
2023-01-19T05:46:24.637Z,98200.94
2023-01-19T05:49:26.418Z,98194.22
2023-01-19T05:52:28.280Z,98191.52
2023-01-19T05:55:29.867Z,98189.52
2023-01-19T05:58:32.352Z,98185.51
2023-01-19T06:01:34.143Z,98191.48
2023-01-19T06:04:35.864Z,98206.59
2023-01-19T06:07:37.485Z,98215.98
2023-01-19T06:10:39.094Z,98213.19
2023-01-19T06:13:41.997Z,98227.39
2023-01-19T06:16:44.050Z,98215.44
2023-01-19T06:19:45.614Z,98190.77
2023-01-19T06:22:47.400Z,98201.61
2023-01-19T06:25:49.286Z,98198.20
2023-01-19T06:28:51.139Z,98179.04
2023-01-19T06:31:53.026Z,98193.96
2023-01-19T06:34:54.770Z,98226.27
2023-01-19T06:37:56.298Z,98223.45
2023-01-19T06:40:58.709Z,98216.43
2023-01-19T06:44:00.708Z,98230.09
2023-01-19T06:47:15.251Z,98230.86
2023-01-19T06:50:17.507Z,98225.35
2023-01-19T06:53:19.226Z,98232.79
2023-01-19T06:56:20.924Z,98241.05
2023-01-19T06:59:23.113Z,98244.33
2023-01-19T07:02:27.770Z,98246.06
2023-01-19T07:05:30.084Z,98255.43
2023-01-19T07:08:31.922Z,98263.10
2023-01-19T07:11:33.962Z,98260.43
2023-01-19T07:14:35.756Z,98267.51
2023-01-19T07:17:37.449Z,98272.88
2023-01-19T07:20:39.269Z,98266.86
2023-01-19T07:23:40.795Z,98268.33
2023-01-19T07:26:42.445Z,98279.00
2023-01-19T07:29:44.052Z,98277.28
2023-01-19T07:32:45.695Z,98268.41
2023-01-19T07:35:48.125Z,98276.04
2023-01-19T07:38:49.848Z,98275.36
2023-01-19T07:41:51.481Z,98282.99
2023-01-19T07:44:53.175Z,98272.09
2023-01-19T07:47:54.756Z,98268.02
2023-01-19T07:51:00.107Z,98281.81
2023-01-19T07:54:01.872Z,98270.44
2023-01-19T07:57:03.681Z,98260.70
2023-01-19T08:00:05.683Z,98261.38
2023-01-19T08:03:07.283Z,98264.05
2023-01-19T08:06:21.152Z,98263.98
2023-01-19T08:09:22.751Z,98278.34
2023-01-19T08:12:24.416Z,98274.85
2023-01-19T08:15:26.269Z,98275.77
2023-01-19T08:18:27.915Z,98282.87
2023-01-19T08:21:29.525Z,98285.02
2023-01-19T08:24:31.605Z,98280.86
2023-01-19T08:27:33.349Z,98295.56
2023-01-19T08:30:35.201Z,98297.20
2023-01-19T08:33:37.010Z,98297.81
2023-01-19T08:36:38.549Z,98295.17
2023-01-19T08:39:40.184Z,98294.52
2023-01-19T08:42:41.847Z,98291.89
2023-01-19T08:45:46.837Z,98294.20
2023-01-19T08:48:48.622Z,98292.60
2023-01-19T08:51:50.226Z,98293.39
2023-01-19T08:54:51.852Z,98284.50
2023-01-19T08:57:54.210Z,98281.77
2023-01-19T09:00:56.103Z,98284.14
2023-01-19T09:03:57.815Z,98276.77
2023-01-19T09:06:59.426Z,98279.75
2023-01-19T09:10:01.297Z,98278.10
2023-01-19T09:13:06.939Z,98272.02
2023-01-19T09:16:09.736Z,98257.80
2023-01-19T09:19:11.400Z,98254.14
2023-01-19T09:22:13.075Z,98257.36
2023-01-19T09:25:14.897Z,98263.25
2023-01-19T09:28:16.806Z,98273.61
2023-01-19T09:31:18.536Z,98268.88
2023-01-19T09:34:20.292Z,98269.32
2023-01-19T09:37:22.400Z,98272.55
2023-01-19T09:40:24.085Z,98269.44
2023-01-19T09:43:39.896Z,98270.89
2023-01-19T09:46:42.034Z,98270.33
2023-01-19T09:49:47.523Z,98265.25
2023-01-19T09:52:56.199Z,98264.36
2023-01-19T09:55:57.840Z,98267.59
2023-01-19T09:59:00.585Z,98267.42
2023-01-19T10:02:21.962Z,98267.45
2023-01-19T10:05:46.067Z,98267.27
2023-01-19T10:08:57.189Z,98263.54
2023-01-19T10:12:07.833Z,98260.28
2023-01-19T10:15:20.372Z,98249.98
2023-01-19T10:18:42.094Z,98244.88
2023-01-19T10:21:44.732Z,98241.84
2023-01-19T10:24:47.579Z,98236.48
2023-01-19T10:27:49.419Z,98242.52
2023-01-19T10:30:54.178Z,98240.10
2023-01-19T10:33:55.807Z,98238.74
2023-01-19T10:36:59.510Z,98229.39
2023-01-19T10:40:08.902Z,98219.90
2023-01-19T10:43:36.433Z,98223.57
2023-01-19T10:46:46.984Z,98220.27
2023-01-19T10:49:49.131Z,98217.45
2023-01-19T10:52:52.932Z,98208.78
2023-01-19T10:56:14.609Z,98211.27
2023-01-19T10:59:46.776Z,98221.24
2023-01-19T11:02:51.137Z,98216.59
2023-01-19T11:05:53.570Z,98211.14
2023-01-19T11:09:11.280Z,98207.38
2023-01-19T11:12:23.231Z,98207.65
2023-01-19T11:15:32.244Z,98204.95
2023-01-19T11:18:36.243Z,98198.15
2023-01-19T11:21:37.891Z,98202.39
2023-01-19T11:24:39.471Z,98202.73
2023-01-19T11:27:49.338Z,98192.02
2023-01-19T11:31:02.412Z,98185.39
2023-01-19T11:34:06.146Z,98185.17
2023-01-19T11:37:16.851Z,98191.02
2023-01-19T11:40:18.600Z,98185.42
2023-01-19T11:43:21.926Z,98181.20
2023-01-19T11:46:26.314Z,98184.80
2023-01-19T11:49:37.020Z,98186.66
2023-01-19T11:52:50.149Z,98182.73
2023-01-19T11:56:00.494Z,98189.95
2023-01-19T11:59:02.666Z,98190.72
2023-01-19T12:02:15.981Z,98182.52
2023-01-19T12:05:19.665Z,98183.02
2023-01-19T12:08:37.588Z,98179.05
2023-01-19T12:11:58.120Z,98174.30
2023-01-19T12:15:04.428Z,98173.80
2023-01-19T12:18:07.588Z,98169.47
2023-01-19T12:21:09.405Z,98170.89
2023-01-19T12:24:15.000Z,98176.48
2023-01-19T12:27:25.601Z,98181.50
2023-01-19T12:30:29.645Z,98186.85
2023-01-19T12:33:36.932Z,98195.09
2023-01-19T12:36:38.905Z,98201.56
2023-01-19T12:39:48.063Z,98202.45
2023-01-19T12:43:04.975Z,98205.90
2023-01-19T12:46:44.477Z,98203.14
2023-01-19T12:49:48.717Z,98206.15
2023-01-19T12:52:55.914Z,98209.70
2023-01-19T12:55:59.111Z,98212.16
2023-01-19T12:59:00.935Z,98206.27
2023-01-19T13:02:20.871Z,98208.89
2023-01-19T13:05:55.140Z,98212.05
2023-01-19T13:08:59.506Z,98212.79
2023-01-19T13:12:20.752Z,98208.55
2023-01-19T13:15:34.568Z,98207.05
2023-01-19T13:18:40.648Z,98208.45
2023-01-19T13:21:47.955Z,98207.59
2023-01-19T13:25:12.006Z,98205.95
2023-01-19T13:28:16.860Z,98210.42
2023-01-19T13:31:19.102Z,98215.58
2023-01-19T13:34:24.591Z,98221.29
2023-01-19T13:37:39.244Z,98223.07
2023-01-19T13:40:40.856Z,98226.66
2023-01-19T13:43:42.942Z,98231.33
2023-01-19T13:46:45.995Z,98242.60
2023-01-19T13:49:48.328Z,98246.69
2023-01-19T13:52:50.000Z,98253.48
2023-01-19T13:56:30.439Z,98259.94
2023-01-19T13:59:32.107Z,98266.31
2023-01-19T14:02:34.179Z,98266.58
2023-01-19T14:05:38.943Z,98270.14
2023-01-19T14:08:40.818Z,98276.77
2023-01-19T14:11:43.985Z,98277.98
2023-01-19T14:14:46.039Z,98279.05
2023-01-19T14:18:08.324Z,98276.36
2023-01-19T14:21:12.298Z,98277.30
2023-01-19T14:24:19.074Z,98283.36
2023-01-19T14:27:24.180Z,98284.66
2023-01-19T14:30:25.956Z,98288.95
2023-01-19T14:33:42.229Z,98287.66
2023-01-19T14:36:43.991Z,98290.27
2023-01-19T14:40:08.565Z,98288.77
2023-01-19T14:43:12.500Z,98286.43
2023-01-19T14:46:20.770Z,98288.17
2023-01-19T14:49:30.277Z,98289.22
2023-01-19T14:52:36.457Z,98291.64
2023-01-19T14:55:43.905Z,98288.27
2023-01-19T14:58:45.431Z,98293.95
2023-01-19T15:01:47.161Z,98293.80
2023-01-19T15:04:48.785Z,98295.71
2023-01-19T15:07:50.441Z,98301.18
2023-01-19T15:10:52.078Z,98303.25
2023-01-19T15:13:53.794Z,98309.22
2023-01-19T15:16:55.424Z,98313.34
2023-01-19T15:19:57.077Z,98312.84
2023-01-19T15:22:58.766Z,98315.92
2023-01-19T15:26:01.888Z,98319.70
2023-01-19T15:29:12.225Z,98323.66
2023-01-19T15:32:14.735Z,98329.27
2023-01-19T15:35:19.541Z,98328.13
2023-01-19T15:38:21.123Z,98333.08
2023-01-19T15:41:25.910Z,98337.33
2023-01-19T15:44:27.569Z,98332.75
2023-01-19T15:47:29.155Z,98334.80
2023-01-19T15:50:31.116Z,98335.31
2023-01-19T15:53:35.707Z,98343.98
2023-01-19T15:56:37.362Z,98347.73
2023-01-19T15:59:38.933Z,98349.11
2023-01-19T16:02:40.759Z,98351.32
2023-01-19T16:05:43.573Z,98351.84
2023-01-19T16:08:45.453Z,98359.47
2023-01-19T16:11:47.055Z,98356.23
2023-01-19T16:14:48.678Z,98358.13
2023-01-19T16:17:50.280Z,98358.81
2023-01-19T16:20:51.888Z,98359.82
2023-01-19T16:23:53.943Z,98358.80
2023-01-19T16:26:55.472Z,98361.55
2023-01-19T16:29:57.228Z,98365.63
2023-01-19T16:32:58.791Z,98364.96
2023-01-19T16:36:17.893Z,98372.13
2023-01-19T16:39:19.541Z,98366.17
2023-01-19T16:42:21.955Z,98363.77
2023-01-19T16:45:23.566Z,98365.32
2023-01-19T16:48:26.335Z,98367.02
2023-01-19T16:51:28.399Z,98363.26
2023-01-19T16:54:30.200Z,98359.17
2023-01-19T16:57:31.937Z,98366.13
2023-01-19T17:00:33.455Z,98368.20
2023-01-19T17:03:35.707Z,98368.70
2023-01-19T17:06:37.395Z,98370.58
2023-01-19T17:09:39.078Z,98371.41
2023-01-19T17:12:40.736Z,98370.91
2023-01-19T17:15:42.443Z,98372.96
2023-01-19T17:18:44.075Z,98375.00
2023-01-19T17:21:46.809Z,98375.66
2023-01-19T17:24:48.555Z,98379.05
2023-01-19T17:27:50.310Z,98383.98
2023-01-19T17:30:51.959Z,98388.73
2023-01-19T17:33:53.811Z,98398.25
2023-01-19T17:36:55.520Z,98400.46
2023-01-19T17:39:57.361Z,98400.11
2023-01-19T17:42:58.987Z,98403.33
2023-01-19T17:46:00.609Z,98404.52
2023-01-19T17:49:03.164Z,98407.07
2023-01-19T17:52:05.036Z,98411.00
2023-01-19T17:55:06.641Z,98409.99
2023-01-19T17:58:08.204Z,98409.99
2023-01-19T18:01:19.847Z,98410.17
2023-01-19T18:04:21.608Z,98417.98
2023-01-19T18:07:23.152Z,98413.05
2023-01-19T18:10:24.903Z,98421.56
2023-01-19T18:13:26.662Z,98430.05
2023-01-19T18:16:29.849Z,98430.40
2023-01-19T18:19:31.482Z,98433.31
2023-01-19T18:22:32.974Z,98430.08
2023-01-19T18:25:34.623Z,98427.20
2023-01-19T18:28:36.446Z,98424.48
2023-01-19T18:31:37.985Z,98422.62
2023-01-19T18:34:39.838Z,98421.44
2023-01-19T18:37:41.332Z,98421.43
2023-01-19T18:40:43.037Z,98424.85
2023-01-19T18:43:44.886Z,98432.02
2023-01-19T18:46:46.574Z,98432.35
2023-01-19T18:49:48.140Z,98431.84
2023-01-19T18:52:49.743Z,98423.33
2023-01-19T18:55:53.908Z,98418.73
2023-01-19T18:58:55.472Z,98412.44
2023-01-19T19:01:57.023Z,98401.60
2023-01-19T19:04:58.660Z,98394.05
2023-01-19T19:08:00.401Z,98401.29
2023-01-19T19:11:02.080Z,98417.33
2023-01-19T19:14:04.212Z,98436.73
2023-01-19T19:17:05.729Z,98453.21
2023-01-19T19:20:07.687Z,98464.21
2023-01-19T19:23:10.788Z,98471.52
2023-01-19T19:26:12.460Z,98482.58
2023-01-19T19:29:14.082Z,98487.67
2023-01-19T19:32:15.691Z,98488.50
2023-01-19T19:35:17.554Z,98492.41
2023-01-19T19:38:19.054Z,98496.36
2023-01-19T19:41:25.432Z,98496.48
2023-01-19T19:44:27.095Z,98491.79
2023-01-19T19:47:28.741Z,98491.02
2023-01-19T19:50:30.307Z,98497.78
2023-01-19T19:53:32.085Z,98509.99
2023-01-19T19:56:33.830Z,98518.55
2023-01-19T19:59:35.495Z,98521.61
2023-01-19T20:02:37.403Z,98529.15
2023-01-19T20:05:39.353Z,98536.13
2023-01-19T20:08:41.416Z,98543.45
2023-01-19T20:11:45.184Z,98551.96
2023-01-19T20:14:46.681Z,98559.09
2023-01-19T20:17:48.351Z,98558.77
2023-01-19T20:20:49.939Z,98565.73
2023-01-19T20:23:52.435Z,98573.95
2023-01-19T20:26:54.043Z,98575.34
2023-01-19T20:29:55.628Z,98585.74
2023-01-19T20:32:57.310Z,98585.07
2023-01-19T20:35:58.847Z,98577.94
2023-01-19T20:39:00.816Z,98573.38
2023-01-19T20:42:02.415Z,98578.82
2023-01-19T20:45:04.339Z,98584.40
2023-01-19T20:48:05.948Z,98597.10
2023-01-19T20:51:12.473Z,98601.13
2023-01-19T20:54:16.775Z,98600.05
2023-01-19T20:57:18.340Z,98599.06
2023-01-19T21:00:20.352Z,98606.20
2023-01-19T21:03:21.953Z,98611.98
2023-01-19T21:06:23.541Z,98619.80
2023-01-19T21:09:25.091Z,98611.96
2023-01-19T21:12:26.720Z,98603.80
2023-01-19T21:15:28.244Z,98604.66
2023-01-19T21:18:29.885Z,98606.55
2023-01-19T21:21:32.170Z,98604.70
2023-01-19T21:24:33.916Z,98606.92
2023-01-19T21:27:35.530Z,98601.66
2023-01-19T21:30:37.214Z,98605.41
2023-01-19T21:33:43.309Z,98608.98
2023-01-19T21:36:44.936Z,98611.02
2023-01-19T21:39:46.608Z,98618.92
2023-01-19T21:42:48.136Z,98635.87
2023-01-19T21:45:50.124Z,98638.75
2023-01-19T21:48:51.826Z,98644.50
2023-01-19T21:51:53.555Z,98651.80
2023-01-19T21:54:55.116Z,98663.02
2023-01-19T21:57:57.330Z,98669.81
2023-01-19T22:01:06.055Z,98671.17
2023-01-19T22:04:07.673Z,98677.62
2023-01-19T22:07:09.827Z,98686.95
2023-01-19T22:10:11.813Z,98692.92
2023-01-19T22:13:13.341Z,98696.48
2023-01-19T22:16:18.274Z,98694.77
2023-01-19T22:19:19.871Z,98690.86
2023-01-19T22:22:21.503Z,98687.98
2023-01-19T22:25:23.219Z,98697.14
2023-01-19T22:28:24.747Z,98703.09
2023-01-19T22:31:27.804Z,98705.64
2023-01-19T22:34:29.404Z,98704.96
2023-01-19T22:37:34.680Z,98713.14
2023-01-19T22:40:36.241Z,98724.05
2023-01-19T22:43:37.970Z,98725.08
2023-01-19T22:46:39.535Z,98726.94
2023-01-19T22:49:41.095Z,98726.95
2023-01-19T22:52:42.632Z,98722.52
2023-01-19T22:55:44.181Z,98719.98
2023-01-19T22:58:46.474Z,98712.83
2023-01-19T23:01:49.353Z,98716.06
2023-01-19T23:04:51.010Z,98720.84
2023-01-19T23:07:52.584Z,98732.25
2023-01-19T23:10:54.329Z,98740.92
2023-01-19T23:13:55.933Z,98749.60
2023-01-19T23:16:57.592Z,98753.34
2023-01-19T23:19:59.104Z,98760.80
2023-01-19T23:23:00.788Z,98761.46
2023-01-19T23:26:02.299Z,98755.50
2023-01-19T23:29:07.148Z,98752.11
2023-01-19T23:32:08.714Z,98756.70
2023-01-19T23:35:10.247Z,98759.42
2023-01-19T23:38:11.916Z,98765.38
2023-01-19T23:41:13.574Z,98769.28
2023-01-19T23:44:16.931Z,98767.08
2023-01-19T23:47:18.631Z,98762.83
2023-01-19T23:50:20.208Z,98764.70
2023-01-19T23:53:21.834Z,98766.42
2023-01-19T23:56:28.670Z,98774.44
2023-01-19T23:59:30.280Z,98770.02
